createdAt,value
2022-10-22T03:31:43.842Z,88.32
2022-10-22T03:36:46.115Z,88.32
2022-10-22T03:41:48.825Z,90.93
2022-10-22T03:46:50.542Z,90.93
2022-10-22T03:51:52.283Z,90.59
2022-10-22T03:56:54.048Z,90.59
2022-10-22T04:01:56.054Z,90.49
2022-10-22T04:06:57.805Z,90.49
2022-10-22T04:12:00.189Z,92.09
2022-10-22T04:17:02.143Z,92.09
2022-10-22T04:22:04.125Z,88.22
2022-10-22T04:27:05.828Z,88.22
2022-10-22T04:32:07.612Z,91.49
2022-10-22T04:37:09.382Z,93.63
2022-10-22T04:42:11.209Z,93.63
2022-10-22T04:47:13.010Z,94.27
2022-10-22T04:52:14.655Z,94.27
2022-10-22T04:57:16.444Z,93.76
2022-10-22T05:02:18.233Z,93.76
2022-10-22T05:07:19.943Z,94.33
2022-10-22T05:12:21.583Z,94.33
2022-10-22T05:17:23.420Z,92.7
2022-10-22T05:22:25.245Z,92.7
2022-10-22T05:27:26.925Z,95.77
2022-10-22T05:32:28.693Z,95.77
2022-10-22T05:37:30.387Z,96.47
2022-10-22T05:42:32.251Z,96.47
2022-10-22T05:47:34.303Z,96.53
2022-10-22T05:52:36.376Z,93.37
2022-10-22T05:57:39.198Z,93.37
2022-10-22T06:02:41.799Z,90.26
2022-10-22T06:07:44.470Z,90.26
2022-10-22T06:12:46.715Z,89.84
2022-10-22T06:17:48.484Z,89.84
2022-10-22T06:22:50.253Z,93.57
2022-10-22T06:27:52.004Z,93.57
2022-10-22T06:32:53.761Z,89.56
2022-10-22T06:37:55.574Z,89.56
2022-10-22T06:42:58.417Z,87.59
2022-10-22T06:48:00.114Z,87.59
2022-10-22T06:53:01.920Z,86.27
2022-10-22T06:58:03.520Z,86.27
2022-10-22T07:03:05.497Z,83.13
2022-10-22T07:08:07.680Z,83.13
2022-10-22T07:13:09.476Z,83.96
2022-10-22T07:18:11.186Z,80.19
2022-10-22T07:23:12.928Z,80.19
2022-10-22T07:28:14.710Z,81.29
2022-10-22T07:33:16.572Z,81.29
2022-10-22T07:38:18.357Z,78.32
2022-10-22T07:43:20.171Z,78.32
2022-10-22T07:48:22.033Z,72.38
2022-10-22T07:53:23.774Z,72.38
2022-10-22T07:58:25.617Z,77.95
2022-10-22T08:03:27.835Z,77.95
2022-10-22T08:08:31.315Z,72.99
2022-10-22T08:13:33.433Z,72.99
2022-10-22T08:18:35.098Z,68.15
2022-10-22T08:23:36.711Z,68.15
2022-10-22T08:28:38.854Z,66.29
2022-10-22T08:33:40.664Z,66.12
2022-10-22T08:38:42.446Z,66.12
2022-10-22T08:48:54.746Z,66.21
2022-10-22T08:59:16.954Z,67.11
2022-10-22T09:04:21.206Z,69.9
2022-10-22T09:09:25.363Z,69.9
2022-10-22T09:14:27.190Z,65.69
2022-10-22T09:19:32.832Z,65.69
2022-10-22T09:24:36.920Z,66.97
2022-10-22T09:29:38.701Z,66.97
2022-10-22T09:34:43.041Z,62.92
2022-10-22T09:39:46.120Z,62.92
2022-10-22T09:44:51.746Z,65.65
2022-10-22T09:55:02.518Z,65.2
2022-10-22T10:00:07.371Z,63.82
2022-10-22T10:10:18.819Z,63.46
2022-10-22T10:15:24.283Z,63.46
2022-10-22T10:20:31.093Z,66.59
2022-10-22T10:35:51.661Z,66.14
2022-10-22T10:40:56.415Z,64.81
2022-10-22T10:46:01.541Z,64.81
2022-10-22T10:51:06.632Z,64.75
2022-10-22T11:01:19.283Z,69.9
2022-10-22T11:06:25.845Z,68.92
2022-10-22T11:11:32.296Z,68.92
2022-10-22T11:16:36.310Z,65.45
2022-10-22T11:21:41.193Z,65.45
2022-10-22T11:26:46.242Z,64.98
2022-10-22T11:31:48.667Z,64.98
2022-10-22T11:36:52.143Z,65.99
2022-10-22T11:41:54.609Z,65.99
2022-10-22T11:46:57.974Z,64
2022-10-22T11:57:17.682Z,64.03
2022-10-22T12:07:31.566Z,67.44
2022-10-22T12:12:38.203Z,66.52
2022-10-22T12:17:41.903Z,66.52
2022-10-22T12:22:44.447Z,66.7
2022-10-22T12:27:49.188Z,66.7
2022-10-22T12:32:51.717Z,67.95
2022-10-22T12:37:54.772Z,67.95
2022-10-22T12:42:57.852Z,69.87
2022-10-22T12:48:01.469Z,69.87
2022-10-22T12:53:04.505Z,71.12
2022-10-22T12:58:06.545Z,71.12
2022-10-22T13:08:17.339Z,73.55
2022-10-22T13:18:32.329Z,73
2022-10-22T13:23:34.237Z,73
2022-10-22T13:28:35.973Z,73.22
2022-10-22T13:33:39.797Z,73.22
2022-10-22T13:38:42.178Z,72.67
2022-10-22T13:43:43.909Z,72.67
2022-10-22T13:48:46.516Z,72.24
2022-10-22T13:53:49.387Z,72.24
2022-10-22T13:58:51.309Z,73.06
2022-10-22T14:03:54.527Z,73.06
2022-10-22T14:08:57.541Z,75.74
2022-10-22T14:13:59.593Z,75.74
2022-10-22T14:19:02.117Z,74.19
2022-10-22T14:24:08.430Z,77.63
2022-10-22T14:29:14.994Z,77.63
2022-10-22T14:34:16.702Z,80.94
2022-10-22T14:39:18.555Z,80.94
2022-10-22T14:44:20.120Z,86.67
2022-10-22T14:49:22.167Z,86.67
2022-10-22T14:54:24.024Z,90.85
2022-10-22T14:59:25.837Z,90.85
2022-10-22T15:04:27.828Z,93.93
2022-10-22T15:09:29.563Z,93.93
2022-10-22T15:14:31.657Z,95.14
2022-10-22T15:19:33.591Z,95.14
2022-10-22T15:24:35.387Z,99.07
2022-10-22T15:29:37.488Z,99.07
2022-10-22T15:34:40.051Z,100
2022-10-22T15:39:41.800Z,100
2022-10-22T15:44:43.940Z,100
2022-10-22T15:49:45.929Z,100
2022-10-22T15:54:48.270Z,100
2022-10-22T15:59:50.087Z,100
2022-10-22T16:04:52.049Z,100
2022-10-22T16:09:55.234Z,100
2022-10-22T16:14:57.115Z,100
2022-10-22T16:19:58.983Z,100
2022-10-22T16:25:01.091Z,100
2022-10-22T16:30:03.208Z,100
2022-10-22T16:35:05.999Z,100
2022-10-22T16:40:08.960Z,100
2022-10-22T16:45:11.479Z,100
2022-10-22T16:50:14.255Z,100
2022-10-22T16:55:16.077Z,100
2022-10-22T17:00:18.833Z,100
2022-10-22T17:05:22.620Z,100
2022-10-22T17:10:24.988Z,100
2022-10-22T17:15:27.453Z,100
2022-10-22T17:20:29.647Z,100
2022-10-22T17:25:35.914Z,100
2022-10-22T17:30:38.743Z,100
2022-10-22T17:35:41.548Z,100
2022-10-22T17:40:44.450Z,100
2022-10-22T17:45:46.987Z,100
2022-10-22T17:50:54.621Z,100
2022-10-22T17:56:01.983Z,100
2022-10-22T18:01:05.295Z,100
2022-10-22T18:06:08.565Z,100
2022-10-22T18:11:12.277Z,100
2022-10-22T18:16:15.171Z,100
2022-10-22T18:21:18.309Z,100
2022-10-22T18:31:28.516Z,100
2022-10-22T18:36:30.694Z,100
2022-10-22T18:41:35.380Z,100
2022-10-22T18:46:39.641Z,100
2022-10-22T18:51:42.422Z,100
2022-10-22T18:56:46.702Z,100
2022-10-22T19:01:49.517Z,100
2022-10-22T19:06:52.060Z,100
2022-10-22T19:11:55.151Z,100
2022-10-22T19:16:58.138Z,100
2022-10-22T19:22:00.376Z,100
2022-10-22T19:27:02.730Z,100
2022-10-22T19:32:05.428Z,100
2022-10-22T19:37:09.563Z,100
2022-10-22T19:42:12.174Z,100
2022-10-22T19:47:14.429Z,100
2022-10-22T19:52:16.703Z,100
2022-10-22T19:57:19.534Z,100
2022-10-22T20:02:22.616Z,100
2022-10-22T20:07:25.866Z,100
2022-10-22T20:12:28.065Z,100
2022-10-22T20:17:30.407Z,100
2022-10-22T20:22:32.316Z,100
2022-10-22T20:27:34.927Z,100
2022-10-22T20:32:38.559Z,100
2022-10-22T20:37:41.691Z,100
2022-10-22T20:42:44.523Z,100
2022-10-22T20:52:52.795Z,100
2022-10-22T20:57:54.602Z,100
2022-10-22T21:02:56.822Z,100
2022-10-22T21:07:58.916Z,100
2022-10-22T21:13:00.955Z,100
2022-10-22T21:18:03.263Z,100
2022-10-22T21:23:05.078Z,100
2022-10-22T21:28:06.714Z,100
2022-10-22T21:33:08.430Z,100
2022-10-22T21:38:10.220Z,100
